Time;durP1;ratioP1;P1;durP2;ratioP2;P2;SDS_P1;SDS_P2;PMS_P1;PMS_P2;Temp;Humidity;BMP_temperature;BMP_pressure;BME280_temperature;BME280_humidity;BME280_pressure;Samples;Min_cycle;Max_cycle;Signal;HPM_P1;HPM_P2
2022/01/08 00:01:42;;;;;;;8.60;2.20;;;;;;;-142.75;100.00;78048.88;5036073;28;20282;-67
2022/01/08 00:04:07;;;;;;;9.30;2.72;;;;;;;-142.75;100.00;78052.81;5044659;28;20421;-68
2022/01/08 00:06:32;;;;;;;13.32;2.72;;;;;;;-142.75;100.00;78058.72;5026084;28;20036;-67
2022/01/08 00:08:58;;;;;;;10.50;3.13;;;;;;;-142.75;100.00;78052.81;5054047;28;20024;-67
2022/01/08 00:11:26;;;;;;;10.80;3.40;;;;;;;-142.75;100.00;78062.69;5048007;28;20433;-68
2022/01/08 00:13:52;;;;;;;10.10;2.80;;;;;;;-142.75;100.00;78070.56;5038565;28;20017;-67
2022/01/08 00:16:17;;;;;;;7.67;2.60;;;;;;;-142.75;100.00;78080.41;5036173;28;20063;-71
2022/01/08 00:18:43;;;;;;;11.50;3.13;;;;;;;-142.75;100.00;78082.38;5053898;28;20056;-67
2022/01/08 00:21:08;;;;;;;8.53;2.87;;;;;;;-142.75;100.00;78086.31;5054063;28;20652;-67
2022/01/08 00:23:33;;;;;;;10.18;2.42;;;;;;;-142.75;100.00;78096.16;5053836;28;20294;-68
2022/01/08 00:25:59;;;;;;;11.32;2.72;;;;;;;-142.75;100.00;78117.81;5036153;28;20079;-68
2022/01/08 00:28:25;;;;;;;12.52;2.92;;;;;;;-142.75;100.00;78129.63;5053622;28;20462;-68
2022/01/08 00:30:51;;;;;;;8.70;2.57;;;;;;;-142.75;100.00;78125.69;5053792;28;20029;-68
2022/01/08 00:33:16;;;;;;;18.63;2.65;;;;;;;-142.75;100.00;78129.63;5053832;28;20029;-68
2022/01/08 00:35:42;;;;;;;7.20;2.60;;;;;;;-142.75;100.00;78133.56;5053628;28;20025;-68
2022/01/08 00:38:07;;;;;;;10.23;1.95;;;;;;;-142.75;100.00;78129.63;5053532;28;20486;-70
2022/01/08 00:40:32;;;;;;;10.70;2.20;;;;;;;-142.75;100.00;78129.63;5049348;28;20033;-68
2022/01/08 00:42:58;;;;;;;10.48;2.30;;;;;;;-142.75;100.00;78121.75;5033580;28;20033;-67
2022/01/08 00:45:23;;;;;;;6.97;2.35;;;;;;;-142.75;100.00;78125.69;5015882;28;20075;-68
2022/01/08 00:47:49;;;;;;;11.60;2.25;;;;;;;-142.75;100.00;78115.84;5015834;28;20025;-67
2022/01/08 00:50:14;;;;;;;6.28;1.77;;;;;;;-142.75;100.00;78107.97;5033510;28;20025;-69
2022/01/08 00:52:41;;;;;;;7.57;1.85;;;;;;;-142.75;100.00;78109.94;5040945;28;20036;-65
2022/01/08 00:55:07;;;;;;;8.53;1.97;;;;;;;-142.75;100.00;78096.16;5044837;28;20079;-67
2022/01/08 00:57:33;;;;;;;11.40;2.00;;;;;;;-142.75;100.00;78102.06;5041241;28;20033;-70
2022/01/08 00:59:58;;;;;;;7.13;1.98;;;;;;;-142.75;100.00;78098.13;5052717;28;20039;-66
2022/01/08 01:02:24;;;;;;;7.97;1.50;;;;;;;-142.75;100.00;78096.16;5034721;28;20704;-67
2022/01/08 01:04:49;;;;;;;7.38;1.80;;;;;;;-142.75;100.00;78096.16;5034606;28;20103;-70
2022/01/08 01:07:14;;;;;;;8.80;2.60;;;;;;;-142.75;100.00;78111.91;5052611;28;20013;-67
2022/01/08 01:09:40;;;;;;;10.07;2.25;;;;;;;-142.75;100.00;78106.00;5034453;28;20025;-67
2022/01/08 01:12:05;;;;;;;8.55;1.77;;;;;;;-142.75;100.00;78102.06;5032422;28;20116;-67
2022/01/08 01:14:31;;;;;;;8.15;1.70;;;;;;;-142.75;100.00;78111.91;5014866;28;20104;-67
2022/01/08 01:16:57;;;;;;;5.88;2.08;;;;;;;-142.75;100.00;78125.69;5032281;28;20060;-68
2022/01/08 01:19:22;;;;;;;6.05;1.60;;;;;;;-142.75;100.00;78111.91;5032296;28;20046;-68
2022/01/08 01:21:49;;;;;;;4.80;1.38;;;;;;;-142.75;100.00;78119.78;5032908;28;20024;-67
2022/01/08 01:24:19;;;;;;;8.17;1.80;;;;;;;-142.75;100.00;78117.81;5032185;28;20021;-67
2022/01/08 01:27:08;;;;;;;9.53;2.03;;;;;;;-142.75;100.00;78123.72;5032063;28;20803;-67
2022/01/08 01:48:22;;;;;;;13.60;2.40;;;;;;;-142.75;100.00;78107.97;5051728;28;20132;-70
2022/01/08 01:50:47;;;;;;;8.10;1.48;;;;;;;-142.75;100.00;78117.81;5034152;28;20111;-67
2022/01/08 01:53:13;;;;;;;8.70;1.88;;;;;;;-142.75;100.00;78113.88;5049828;28;20025;-68
2022/01/08 01:55:40;;;;;;;8.07;2.17;;;;;;;-142.75;100.00;78121.75;5031607;28;20036;-68
2022/01/08 01:58:06;;;;;;;13.13;2.60;;;;;;;-142.75;100.00;78127.66;5013485;28;20384;-68
2022/01/08 02:00:33;;;;;;;6.60;1.38;;;;;;;-142.75;100.00;78139.47;5026429;28;20086;-68
2022/01/08 02:02:59;;;;;;;7.50;1.20;;;;;;;-142.75;100.00;78155.22;5051302;28;20025;-67
2022/01/08 02:05:25;;;;;;;8.63;1.93;;;;;;;-142.75;100.00;78165.06;5051256;28;20029;-67
2022/01/08 02:07:53;;;;;;;8.32;1.30;;;;;;;-142.75;100.00;78163.09;5041003;28;20033;-66
2022/01/08 02:10:18;;;;;;;6.57;1.63;;;;;;;-142.75;100.00;78172.94;5031573;28;20027;-67
2022/01/08 02:12:44;;;;;;;11.23;1.98;;;;;;;-142.75;100.00;78180.81;5031249;28;20025;-68
2022/01/08 02:15:09;;;;;;;8.97;1.83;;;;;;;-142.75;100.00;78170.97;5030777;28;20441;-67
2022/01/08 02:17:34;;;;;;;15.25;2.30;;;;;;;-142.75;100.00;78157.19;5031229;28;20280;-68
2022/01/08 02:20:00;;;;;;;9.77;1.75;;;;;;;-142.75;100.00;78170.97;5013099;28;20026;-67
2022/01/08 02:22:25;;;;;;;5.70;1.13;;;;;;;-142.75;100.00;78170.97;5031807;28;20585;-67
2022/01/08 02:24:50;;;;;;;4.93;1.57;;;;;;;-142.75;100.00;78178.84;5039492;28;20405;-70
2022/01/08 02:27:16;;;;;;;14.60;2.00;;;;;;;-142.75;100.00;78176.88;5038015;28;20124;-67
2022/01/08 02:29:42;;;;;;;7.43;1.42;;;;;;;-142.75;100.00;78165.06;5030927;28;20387;-67
2022/01/08 02:32:09;;;;;;;;;;;;;;;-142.75;100.00;78155.22;5031463;28;20025;-71
2022/01/08 02:34:39;;;;;;;6.30;1.25;;;;;;;-142.75;100.00;78153.25;5031108;28;20322;-67
2022/01/08 02:37:06;;;;;;;17.37;1.83;;;;;;;-142.75;100.00;78155.22;5030875;28;20029;-67
2022/01/08 02:39:38;;;;;;;9.37;1.33;;;;;;;-142.75;100.00;78145.38;5041354;28;20040;-68
2022/01/08 02:42:06;;;;;;;9.83;1.97;;;;;;;-142.75;100.00;78145.38;5050700;28;20525;-70
2022/01/08 02:44:31;;;;;;;9.13;1.77;;;;;;;-142.75;100.00;78139.47;5050823;28;20021;-67
2022/01/08 02:46:56;;;;;;;9.80;1.75;;;;;;;-142.75;100.00;78137.50;5050633;28;20398;-67
2022/01/08 02:49:23;;;;;;;7.33;1.60;;;;;;;-142.75;100.00;78133.56;5050552;28;20037;-67
2022/01/08 02:51:48;;;;;;;9.70;1.83;;;;;;;-142.75;100.00;78137.50;5039399;28;20280;-69
2022/01/08 02:54:14;;;;;;;10.05;1.85;;;;;;;-142.75;100.00;78131.59;5030791;28;20030;-67
2022/01/08 02:56:41;;;;;;;12.43;1.90;;;;;;;-142.75;100.00;78147.34;5012833;28;20017;-67
2022/01/08 02:59:07;;;;;;;14.40;1.73;;;;;;;-142.75;100.00;78149.31;5012509;28;20045;-67
2022/01/08 03:01:33;;;;;;;14.65;1.73;;;;;;;-142.75;100.00;78147.34;5012878;28;20035;-68
2022/01/08 03:03:59;;;;;;;11.23;2.05;;;;;;;-142.75;100.00;78147.34;5030484;28;20540;-67
2022/01/08 03:06:25;;;;;;;9.93;1.20;;;;;;;-142.75;100.00;78137.50;5030500;28;20021;-67
2022/01/08 03:08:50;;;;;;;6.93;1.80;;;;;;;-142.75;100.00;78133.56;5012367;28;20076;-67
2022/01/08 03:11:15;;;;;;;7.93;1.38;;;;;;;-142.75;100.00;78129.63;5012586;28;20043;-68
2022/01/08 03:13:41;;;;;;;12.00;1.92;;;;;;;-142.75;100.00;78135.53;5012742;28;20041;-67
2022/01/08 03:16:06;;;;;;;4.25;1.17;;;;;;;-142.75;100.00;78125.69;5012652;28;20025;-69
2022/01/08 03:18:34;;;;;;;9.90;1.60;;;;;;;-142.75;100.00;78133.56;5022736;28;20036;-67
2022/01/08 03:21:02;;;;;;;7.40;1.43;;;;;;;-142.75;100.00;78145.38;5049853;28;20020;-67
2022/01/08 03:23:37;;;;;;;5.50;1.30;;;;;;;-142.75;100.00;78153.25;5050472;28;20394;-67
2022/01/08 03:26:04;;;;;;;6.60;1.40;;;;;;;-142.75;100.00;78153.25;5049064;28;20033;-67
2022/01/08 03:28:29;;;;;;;5.90;1.17;;;;;;;-142.75;100.00;78159.16;5035133;28;20030;-70
2022/01/08 03:30:54;;;;;;;6.32;1.38;;;;;;;-142.75;100.00;78151.28;5030349;28;20555;-69
2022/01/08 03:33:19;;;;;;;5.45;1.23;;;;;;;-142.75;100.00;78147.34;5029963;28;20033;-68
2022/01/08 03:35:45;;;;;;;8.87;1.70;;;;;;;-142.75;100.00;78141.44;5012380;28;20071;-68
2022/01/08 03:38:10;;;;;;;7.22;1.92;;;;;;;-142.75;100.00;78145.38;5029748;28;20661;-68
2022/01/08 03:40:35;;;;;;;9.70;1.80;;;;;;;-142.75;100.00;78137.50;5030058;28;20398;-67
2022/01/08 03:43:01;;;;;;;7.57;1.40;;;;;;;-142.75;100.00;78129.63;5029934;28;20409;-67
2022/01/08 03:45:26;;;;;;;5.72;1.48;;;;;;;-142.75;100.00;78129.63;5030092;28;20029;-70
2022/01/08 03:50:17;;;;;;;4.20;1.17;;;;;;;-142.75;100.00;78127.66;5030037;28;20029;-71
2022/01/08 03:52:43;;;;;;;4.82;1.33;;;;;;;-142.75;100.00;78133.56;5030363;28;20025;-67
2022/01/08 03:55:09;;;;;;;5.57;1.67;;;;;;;-142.75;100.00;78143.41;5012122;28;20554;-66
2022/01/08 03:57:34;;;;;;;6.43;1.25;;;;;;;-142.75;100.00;78139.47;5029454;28;20111;-68
2022/01/08 03:59:59;;;;;;;9.40;1.93;;;;;;;-142.75;100.00;78145.38;5049507;28;20108;-68
2022/01/08 04:02:25;;;;;;;5.13;0.80;;;;;;;-142.75;100.00;78145.38;5049609;28;20791;-67
2022/01/08 04:04:50;;;;;;;7.32;1.55;;;;;;;-142.75;100.00;78143.41;5017071;28;20275;-68
2022/01/08 04:07:15;;;;;;;8.53;1.50;;;;;;;-142.75;100.00;78141.44;5042398;28;20036;-68
2022/01/08 04:09:41;;;;;;;5.70;1.30;;;;;;;-142.75;100.00;78149.31;5049249;28;20275;-68
2022/01/08 04:12:07;;;;;;;8.55;1.67;;;;;;;-142.75;100.00;78141.44;5031862;28;20110;-69
2022/01/08 04:14:48;;;;;;;5.47;1.40;;;;;;;-142.75;100.00;78149.31;5049563;28;20116;-67
2022/01/08 04:17:16;;;;;;;5.20;1.53;;;;;;;-142.75;100.00;78151.28;5017530;28;20032;-68
2022/01/08 04:19:41;;;;;;;7.77;1.90;;;;;;;-142.75;100.00;78149.31;5011778;28;20406;-68
2022/01/08 04:24:42;;;;;;;6.30;1.37;;;;;;;-142.75;100.00;78151.28;5048891;23;20311;-68
2022/01/08 04:27:07;;;;;;;;;;;;;;;-142.75;100.00;78155.22;5029137;28;20387;-68
2022/01/08 04:29:33;;;;;;;9.83;1.50;;;;;;;-142.75;100.00;78161.13;5029232;28;19913;-68
2022/01/08 04:31:58;;;;;;;7.85;1.75;;;;;;;-142.75;100.00;78163.09;5011820;28;20034;-68
2022/01/08 04:34:23;;;;;;;14.93;1.70;;;;;;;-142.75;100.00;78172.94;5029578;28;20017;-68
2022/01/08 04:36:49;;;;;;;8.67;1.40;;;;;;;-142.75;100.00;78174.91;5011835;28;20280;-68
2022/01/08 04:39:14;;;;;;;10.55;1.80;;;;;;;-142.75;100.00;78176.88;5032404;28;20769;-68
2022/01/08 04:41:41;;;;;;;8.13;2.03;;;;;;;-142.75;100.00;78180.81;5043632;28;20040;-68
2022/01/08 04:44:08;;;;;;;8.47;1.33;;;;;;;-142.75;100.00;78180.81;5034758;28;20119;-67
2022/01/08 04:46:33;;;;;;;9.87;1.30;;;;;;;-142.75;100.00;78180.81;5052947;28;20066;-68
2022/01/08 04:48:58;;;;;;;8.45;1.67;;;;;;;-142.75;100.00;78200.53;5034696;28;20029;-68
2022/01/08 04:51:24;;;;;;;8.90;1.60;;;;;;;-142.75;100.00;78190.69;5052937;28;20111;-67
2022/01/08 04:53:49;;;;;;;7.07;1.67;;;;;;;-142.75;100.00;78194.63;5053591;28;20362;-68
2022/01/08 04:56:14;;;;;;;10.53;1.73;;;;;;;-142.75;100.00;78190.69;5052628;28;20293;-68
2022/01/08 04:58:40;;;;;;;11.77;1.75;;;;;;;-142.75;100.00;78180.81;5052666;28;20036;-68
2022/01/08 05:01:10;;;;;;;7.00;2.15;;;;;;;-142.75;100.00;78178.84;5052916;28;20032;-67
2022/01/08 05:03:36;;;;;;;8.33;1.83;;;;;;;-142.75;100.00;78163.09;5052583;28;20033;-67
2022/01/08 05:06:01;;;;;;;6.93;1.60;;;;;;;-142.75;100.00;78153.25;5029837;28;20080;-67
2022/01/08 05:08:26;;;;;;;10.27;1.70;;;;;;;-142.75;100.00;78155.22;5032585;28;20095;-67
2022/01/08 05:10:51;;;;;;;15.43;2.73;;;;;;;-142.75;100.00;78155.22;5014902;28;20291;-68
2022/01/08 05:13:17;;;;;;;11.60;2.67;;;;;;;-142.75;100.00;78149.31;5014767;28;20026;-68
2022/01/08 05:15:42;;;;;;;11.57;2.33;;;;;;;-142.75;100.00;78161.13;5014615;28;20060;-68
2022/01/08 05:18:09;;;;;;;11.05;2.90;;;;;;;-142.75;100.00;78157.19;5032170;28;20037;-68
2022/01/08 05:20:37;;;;;;;9.33;2.70;;;;;;;-142.75;100.00;78163.09;5032590;28;20021;-68
2022/01/08 05:23:03;;;;;;;9.10;2.73;;;;;;;-142.75;100.00;78178.84;5014947;28;20025;-67
2022/01/08 05:25:30;;;;;;;8.27;2.20;;;;;;;-142.75;100.00;78192.66;5032438;28;20029;-67
2022/01/08 05:27:56;;;;;;;;;;;;;;;-142.75;100.00;78216.28;5032577;28;20113;-66
2022/01/08 05:30:22;;;;;;;9.07;2.43;;;;;;;-142.75;100.00;78232.03;5032200;28;19979;-67
2022/01/08 05:32:48;;;;;;;8.97;1.97;;;;;;;-142.75;100.00;78251.72;5031969;28;20053;-68
2022/01/08 05:35:14;;;;;;;17.30;3.22;;;;;;;-142.75;100.00;78241.88;5032298;28;20052;-68
2022/01/08 05:37:40;;;;;;;6.95;1.90;;;;;;;-142.75;100.00;78235.97;5032131;28;20408;-67
2022/01/08 05:40:06;;;;;;;10.35;2.60;;;;;;;-142.75;100.00;78228.09;5031789;28;20033;-67
2022/01/08 05:42:31;;;;;;;9.80;2.35;;;;;;;-142.75;100.00;78234.00;5032126;28;20422;-67
2022/01/08 05:44:56;;;;;;;11.17;2.13;;;;;;;-142.75;100.00;78228.09;5031956;28;20029;-68
2022/01/08 05:47:22;;;;;;;15.48;2.67;;;;;;;-142.75;100.00;78220.22;5031992;28;20264;-68
2022/01/08 05:49:47;;;;;;;11.80;2.33;;;;;;;-142.75;100.00;78216.28;5030465;28;20052;-68
2022/01/08 05:52:13;;;;;;;8.27;2.15;;;;;;;-142.75;100.00;78214.31;5032251;28;20029;-68
2022/01/08 05:54:38;;;;;;;7.88;2.67;;;;;;;-142.75;100.00;78208.41;5031952;28;20100;-67
2022/01/08 05:57:04;;;;;;;9.23;2.50;;;;;;;-142.75;100.00;78210.38;5031782;28;20038;-67
2022/01/08 05:59:30;;;;;;;10.05;2.30;;;;;;;-142.75;100.00;78206.44;5031296;28;20398;-68
2022/01/08 06:01:56;;;;;;;11.25;2.45;;;;;;;-142.75;100.00;78204.47;5031762;28;20041;-68
2022/01/08 06:04:22;;;;;;;12.57;2.77;;;;;;;-142.75;100.00;78208.41;5031425;28;20034;-68
2022/01/08 06:06:47;;;;;;;10.35;2.53;;;;;;;-142.75;100.00;78206.44;5031581;28;20032;-68
2022/01/08 06:09:13;;;;;;;9.52;2.42;;;;;;;-142.75;100.00;78196.59;5031358;28;20037;-68
2022/01/08 06:11:38;;;;;;;11.23;2.50;;;;;;;-142.75;100.00;78194.63;5031386;28;20021;-68
2022/01/08 06:14:04;;;;;;;7.83;2.10;;;;;;;-142.75;100.00;78192.66;5031480;28;20033;-68
2022/01/08 06:16:34;;;;;;;;;;;;;;;-142.75;100.00;78188.72;5031750;28;20319;-67
2022/01/08 06:19:02;;;;;;;9.87;2.43;;;;;;;-142.75;100.00;78178.84;5031198;28;20394;-69
2022/01/08 06:21:28;;;;;;;7.30;1.80;;;;;;;-142.75;100.00;78180.81;5030997;28;20021;-68
2022/01/08 06:23:53;;;;;;;7.20;1.60;;;;;;;-142.75;100.00;78180.81;5031656;28;20017;-68
2022/01/08 06:26:18;;;;;;;18.48;2.78;;;;;;;-142.75;100.00;78180.81;5031295;28;20041;-67
2022/01/08 06:28:44;;;;;;;7.97;1.93;;;;;;;-142.75;100.00;78174.91;5031226;28;20029;-68
2022/01/08 06:31:09;;;;;;;6.23;1.80;;;;;;;-142.75;100.00;78174.91;5042788;28;20287;-68
2022/01/08 06:33:34;;;;;;;7.18;2.17;;;;;;;-142.75;100.00;78165.06;5051047;28;20033;-68
2022/01/08 06:35:59;;;;;;;10.03;2.40;;;;;;;-142.75;100.00;78176.88;5050600;28;20021;-68
2022/01/08 06:38:25;;;;;;;9.47;2.30;;;;;;;-142.75;100.00;78178.84;5050699;28;20274;-69
2022/01/08 06:40:50;;;;;;;6.20;2.03;;;;;;;-142.75;100.00;78182.81;5050967;28;20385;-68
2022/01/08 06:43:15;;;;;;;14.43;2.77;;;;;;;-142.75;100.00;78184.78;5050660;28;20027;-68
2022/01/08 06:45:40;;;;;;;9.83;2.40;;;;;;;-142.75;100.00;78194.63;5032967;28;20828;-68
2022/01/08 06:48:06;;;;;;;5.27;1.83;;;;;;;-142.75;100.00;78198.56;5050315;28;20283;-68
2022/01/08 06:50:31;;;;;;;11.05;2.30;;;;;;;-142.75;100.00;78196.59;5050511;28;20275;-68
2022/01/08 06:52:57;;;;;;;4.82;1.83;;;;;;;-142.75;100.00;78200.53;5051086;28;20025;-68
2022/01/08 06:55:22;;;;;;;10.73;2.13;;;;;;;-142.75;100.00;78208.41;5050502;28;20052;-68
2022/01/08 06:57:48;;;;;;;8.98;2.00;;;;;;;-142.75;100.00;78212.34;5032382;28;20036;-67
2022/01/08 07:00:13;;;;;;;10.57;2.15;;;;;;;-142.75;100.00;78220.22;5049936;28;20062;-68
2022/01/08 07:02:39;;;;;;;10.25;2.65;;;;;;;-142.75;100.00;78220.22;5049710;28;20032;-68
2022/01/08 07:05:04;;;;;;;9.73;2.30;;;;;;;-142.75;100.00;78220.22;5031681;28;20394;-68
2022/01/08 07:07:30;;;;;;;10.23;2.53;;;;;;;-142.75;100.00;78224.16;5031769;28;20024;-67
2022/01/08 07:09:55;;;;;;;8.35;2.30;;;;;;;-142.75;100.00;78220.22;5049319;28;20039;-67
2022/01/08 07:12:20;;;;;;;10.57;1.95;;;;;;;-142.75;100.00;78212.34;5049488;28;20110;-67
2022/01/08 07:14:46;;;;;;;11.85;2.13;;;;;;;-142.75;100.00;78220.22;5049244;28;20028;-67
2022/01/08 07:17:11;;;;;;;6.63;2.20;;;;;;;-142.75;100.00;78222.19;5049371;28;20029;-67
2022/01/08 07:19:36;;;;;;;6.65;2.28;;;;;;;-142.75;100.00;78224.16;5048002;28;20027;-66
2022/01/08 07:22:01;;;;;;;10.77;1.90;;;;;;;-142.75;100.00;78220.22;5049324;28;20028;-67
2022/01/08 07:24:27;;;;;;;13.23;2.58;;;;;;;-142.75;100.00;78216.28;5049603;28;20115;-67
2022/01/08 07:26:52;;;;;;;8.82;2.20;;;;;;;-142.75;100.00;78226.13;5049677;28;20036;-67
2022/01/08 07:29:17;;;;;;;8.80;2.42;;;;;;;-142.75;100.00;78228.09;5049384;28;20040;-67
2022/01/08 07:31:43;;;;;;;15.70;2.67;;;;;;;-142.75;100.00;78218.25;5049240;28;20074;-67
2022/01/08 07:34:08;;;;;;;12.23;2.63;;;;;;;-142.75;100.00;78222.19;5048847;28;20110;-67
2022/01/08 07:36:33;;;;;;;11.73;2.37;;;;;;;-142.75;100.00;78228.09;5049128;28;20025;-67
2022/01/08 07:38:58;;;;;;;11.50;2.93;;;;;;;-142.75;100.00;78228.09;5048332;28;20336;-67
2022/01/08 07:41:24;;;;;;;9.00;2.95;;;;;;;-142.75;100.00;78220.22;5031167;28;20036;-67
2022/01/08 07:43:49;;;;;;;15.10;3.40;;;;;;;-142.75;100.00;78220.22;5049094;28;20028;-67
2022/01/08 07:46:14;;;;;;;17.20;3.90;;;;;;;-142.75;100.00;78228.09;5049611;28;20017;-67
2022/01/08 07:48:40;;;;;;;11.98;3.75;;;;;;;-142.75;100.00;78216.28;5049131;28;20027;-67
2022/01/08 07:51:06;;;;;;;12.88;4.10;;;;;;;-142.75;100.00;78224.16;5049118;28;20113;-67
2022/01/08 07:53:31;;;;;;;14.98;4.70;;;;;;;-142.75;100.00;78226.13;5049402;28;20021;-67
2022/01/08 07:55:56;;;;;;;17.13;5.03;;;;;;;-142.75;100.00;78224.16;5049506;28;20108;-67
2022/01/08 07:58:22;;;;;;;14.40;4.90;;;;;;;-142.75;100.00;78216.28;5049139;28;20044;-68
2022/01/08 08:00:48;;;;;;;14.50;6.47;;;;;;;-142.75;100.00;78226.13;5049387;28;20285;-66
2022/01/08 08:03:13;;;;;;;;;;;;;;;-142.75;100.00;78208.41;5031820;28;20389;-66
2022/01/08 08:05:39;;;;;;;16.90;5.87;;;;;;;-142.75;100.00;78204.47;5049389;28;20003;-67
2022/01/08 08:08:04;;;;;;;13.45;6.28;;;;;;;-142.75;100.00;78198.56;5048974;28;20021;-67
2022/01/08 08:10:29;;;;;;;19.15;6.78;;;;;;;-142.75;100.00;78188.72;5049692;28;20451;-68
2022/01/08 08:12:56;;;;;;;12.57;6.20;;;;;;;-142.75;100.00;78190.69;5051191;28;20444;-68
2022/01/08 08:15:21;;;;;;;10.60;6.10;;;;;;;-142.75;100.00;78180.81;5052296;28;20770;-68
2022/01/08 08:17:47;;;;;;;19.65;7.00;;;;;;;-142.75;100.00;78180.81;5052368;28;20017;-67
2022/01/08 08:20:13;;;;;;;15.75;6.65;;;;;;;-142.75;100.00;78194.63;5052092;28;20043;-67
2022/01/08 08:22:39;;;;;;;14.45;6.53;;;;;;;-142.75;100.00;78192.66;5045017;28;20057;-67
2022/01/08 08:25:05;;;;;;;;;;;;;;;-142.75;100.00;78192.66;5032947;28;20025;-67
2022/01/08 08:27:30;;;;;;;16.47;6.83;;;;;;;-142.75;100.00;78200.53;5032128;28;19919;-67
2022/01/08 08:29:56;;;;;;;17.02;6.55;;;;;;;-142.75;100.00;78190.69;5032412;28;20026;-68
2022/01/08 08:32:21;;;;;;;14.77;7.15;;;;;;;-142.75;100.00;78188.72;5032098;28;20104;-64
2022/01/08 08:34:46;;;;;;;25.15;7.82;;;;;;;-142.75;100.00;78169.00;5013356;28;20033;-68
2022/01/08 08:37:12;;;;;;;22.60;8.30;;;;;;;-142.75;100.00;78176.88;5035972;28;20033;-67
2022/01/08 08:39:37;;;;;;;19.50;8.90;;;;;;;-142.75;100.00;78182.81;5040322;28;20024;-68
2022/01/08 08:42:03;;;;;;;16.85;9.10;;;;;;;-142.75;100.00;78180.81;5033253;28;20030;-68
2022/01/08 08:44:28;;;;;;;19.70;9.77;;;;;;;-142.75;100.00;78176.88;5049952;28;20017;-68
2022/01/08 08:46:53;;;;;;;21.77;9.10;;;;;;;-142.75;100.00;78174.91;5050347;28;20028;-68
2022/01/08 08:49:20;;;;;;;24.98;9.75;;;;;;;-142.75;100.00;78176.88;5050133;28;20047;-68
2022/01/08 08:51:45;;;;;;;22.20;10.77;;;;;;;-142.75;100.00;78174.91;5051102;28;20029;-68
2022/01/08 08:54:10;;;;;;;22.55;11.68;;;;;;;-142.75;100.00;78169.00;5051705;28;20021;-67
2022/01/08 08:56:38;;;;;;;22.15;11.27;;;;;;;-142.75;100.00;78172.94;5028918;28;20510;-67
2022/01/08 08:59:03;;;;;;;28.93;13.17;;;;;;;-142.75;100.00;78163.09;5031413;28;20474;-67
2022/01/08 09:01:29;;;;;;;28.45;12.68;;;;;;;-142.75;100.00;78155.22;5032251;28;20037;-67
2022/01/08 09:03:54;;;;;;;27.13;12.57;;;;;;;-142.75;100.00;78153.25;5031857;28;20025;-68
2022/01/08 09:06:20;;;;;;;27.05;13.10;;;;;;;-142.75;100.00;78135.53;5032296;28;20098;-68
2022/01/08 09:08:45;;;;;;;27.10;12.20;;;;;;;-142.75;100.00;78129.63;5032206;28;20441;-68
2022/01/08 09:11:11;;;;;;;26.67;13.02;;;;;;;-142.75;100.00;78141.44;5032440;28;20433;-68
2022/01/08 09:13:36;;;;;;;27.95;12.77;;;;;;;-142.75;100.00;78133.56;5035991;28;20587;-69
2022/01/08 09:16:01;;;;;;;30.10;13.13;;;;;;;-142.75;100.00;78117.81;5033642;28;20405;-68
2022/01/08 09:18:27;;;;;;;22.88;12.90;;;;;;;-142.75;100.00;78113.88;5051778;28;20461;-68
2022/01/08 09:20:53;;;;;;;25.35;12.88;;;;;;;-142.75;100.00;78113.88;5052126;28;20687;-68
2022/01/08 09:23:18;;;;;;;23.48;12.63;;;;;;;-142.75;100.00;78106.00;5051726;28;20074;-68
2022/01/08 09:25:43;;;;;;;32.03;12.73;;;;;;;-142.75;100.00;78107.97;5052005;28;20028;-68
2022/01/08 09:28:09;;;;;;;24.50;12.52;;;;;;;-142.75;100.00;78092.22;5051696;28;20037;-68
2022/01/08 09:30:34;;;;;;;26.33;12.85;;;;;;;-142.75;100.00;78082.38;5052036;28;20032;-68
2022/01/08 09:32:59;;;;;;;21.75;13.35;;;;;;;-142.75;100.00;78082.38;5051392;28;20076;-68
2022/01/08 09:35:28;;;;;;;26.20;12.25;;;;;;;-142.75;100.00;78074.50;5033924;28;20482;-68
2022/01/08 09:37:54;;;;;;;30.17;14.27;;;;;;;-142.75;100.00;78066.63;5051440;28;20119;-69
2022/01/08 09:40:21;;;;;;;28.83;14.77;;;;;;;-142.75;100.00;78066.63;5051149;28;20039;-70
2022/01/08 09:42:48;;;;;;;41.23;24.63;;;;;;;-142.75;100.00;78066.63;5033460;28;20025;-69
2022/01/08 09:45:13;;;;;;;;;;;;;;;-142.75;100.00;78070.56;5051797;28;20032;-70
2022/01/08 09:47:38;;;;;;;25.50;12.53;;;;;;;-142.75;100.00;78064.66;5033162;28;20520;-69
2022/01/08 09:50:05;;;;;;;27.73;15.82;;;;;;;-142.75;100.00;78050.84;5051164;28;20024;-70
2022/01/08 09:52:32;;;;;;;31.87;18.00;;;;;;;-142.75;100.00;78054.81;5051281;28;20082;-70
2022/01/08 09:54:57;;;;;;;41.60;25.00;;;;;;;-142.75;100.00;78058.72;5051255;28;20025;-70
2022/01/08 09:57:23;;;;;;;91.97;47.83;;;;;;;-142.75;100.00;78042.97;5051206;28;20032;-70
2022/01/08 09:59:48;;;;;;;30.35;18.95;;;;;;;-142.75;100.00;78037.06;5051066;28;20417;-70
2022/01/08 10:02:19;;;;;;;26.83;14.38;;;;;;;-142.75;100.00;78021.31;5051089;28;20047;-70
2022/01/08 10:04:45;;;;;;;25.73;14.67;;;;;;;-142.75;100.00;78023.28;5051371;28;20106;-70
2022/01/08 10:07:25;;;;;;;23.05;12.45;;;;;;;-142.75;100.00;78007.53;5051374;28;20497;-69
2022/01/08 10:10:10;;;;;;;29.80;17.53;;;;;;;-142.75;100.00;78001.63;5033123;28;20029;-70
2022/01/08 10:12:45;;;;;;;32.97;17.93;;;;;;;-142.75;100.00;77987.84;5051190;28;20434;-70
2022/01/08 10:17:57;;;;;;;23.87;12.97;;;;;;;-142.75;100.00;77972.09;5050745;28;20086;-70
2022/01/08 10:20:33;;;;;;;22.58;13.65;;;;;;;-142.75;100.00;77964.22;5050829;28;20028;-69
2022/01/08 10:23:23;;;;;;;33.43;18.90;;;;;;;-142.75;100.00;77948.47;5032796;28;20025;-69
2022/01/08 10:26:06;;;;;;;61.80;33.37;;;;;;;-142.75;100.00;77932.72;5051012;28;20657;-70
2022/01/08 10:28:32;;;;;;;31.03;18.20;;;;;;;-142.75;100.00;77928.78;5050636;28;20024;-70
2022/01/08 10:31:16;;;;;;;;;;;;;;;-142.75;100.00;77911.06;5051034;28;20375;-69
2022/01/08 10:33:48;;;;;;;20.47;9.87;;;;;;;-142.75;100.00;77909.06;5050596;28;19916;-70
2022/01/08 10:36:15;;;;;;;18.93;8.60;;;;;;;-142.75;100.00;77889.38;5032277;28;20021;-70
2022/01/08 10:38:40;;;;;;;17.80;9.13;;;;;;;-142.75;100.00;77869.69;5036231;28;20017;-70
2022/01/08 10:41:12;;;;;;;17.83;8.35;;;;;;;-142.75;100.00;77861.81;5030711;28;20395;-69
2022/01/08 10:43:38;;;;;;;14.67;6.60;;;;;;;-142.75;100.00;77848.03;5030592;28;20042;-69
2022/01/08 10:46:18;;;;;;;17.40;7.93;;;;;;;-142.75;100.00;77838.19;5029875;28;20013;-69
2022/01/08 10:48:50;;;;;;;16.93;7.50;;;;;;;-142.75;100.00;77828.34;5027984;28;20028;-68
2022/01/08 10:51:21;;;;;;;14.97;5.77;;;;;;;-142.75;100.00;77812.59;5050443;28;20876;-68
2022/01/08 10:53:51;;;;;;;15.13;5.97;;;;;;;-142.75;100.00;77785.03;5032361;28;20028;-68
2022/01/08 10:56:26;;;;;;;14.53;5.10;;;;;;;-142.75;100.00;77765.34;5050155;28;20502;-68
2022/01/08 10:58:54;;;;;;;15.40;4.83;;;;;;;-142.75;100.00;77761.41;5049941;28;20029;-67
2022/01/08 11:01:35;;;;;;;11.30;4.03;;;;;;;-142.75;100.00;77737.78;5049944;28;20048;-69
2022/01/08 11:04:00;;;;;;;8.63;4.63;;;;;;;-142.75;100.00;77722.00;5049855;28;20025;-68
2022/01/08 11:06:26;;;;;;;10.77;3.93;;;;;;;-142.75;100.00;77710.19;5049834;28;20024;-69
2022/01/08 11:09:01;;;;;;;12.60;3.92;;;;;;;-142.75;100.00;77698.38;5049712;28;20305;-68
2022/01/08 11:11:30;;;;;;;67.93;36.43;;;;;;;-142.75;100.00;77678.69;5049937;28;20063;-69
2022/01/08 11:14:06;;;;;;;56.47;36.23;;;;;;;-142.75;100.00;77670.81;5036034;28;20021;-69
2022/01/08 11:16:34;;;;;;;21.67;10.32;;;;;;;-142.75;100.00;77660.97;5029922;28;20060;-68
2022/01/08 11:19:02;;;;;;;9.87;5.50;;;;;;;-142.75;100.00;77645.22;5029170;28;20059;-68
2022/01/08 11:21:30;;;;;;;12.53;7.10;;;;;;;-142.75;100.00;77629.47;5029858;28;20025;-68
2022/01/08 11:23:57;;;;;;;11.07;5.80;;;;;;;-142.75;100.00;77629.47;5029729;28;20028;-68
2022/01/08 11:26:24;;;;;;;14.17;6.50;;;;;;;-142.75;100.00;77631.44;5029847;28;20067;-68
2022/01/08 11:28:49;;;;;;;13.33;4.77;;;;;;;-142.75;100.00;77627.50;5029416;28;20087;-68
2022/01/08 11:31:15;;;;;;;12.13;4.68;;;;;;;-142.75;100.00;77633.41;5011853;28;20483;-68